createdAt,value
2023-05-08T00:01:42.799Z,35.33
2023-05-08T00:06:44.412Z,36.28
2023-05-08T00:11:46.076Z,36.38
2023-05-08T00:16:47.767Z,37.95
2023-05-08T00:21:49.436Z,39.13
2023-05-08T00:26:51.155Z,36.33
2023-05-08T00:31:53.033Z,37.83
2023-05-08T00:36:59.629Z,36.42
2023-05-08T00:42:01.231Z,41.25
2023-05-08T00:47:02.969Z,41.33
2023-05-08T00:52:08.768Z,44.17
2023-05-08T00:57:10.692Z,44.70
2023-05-08T01:02:12.618Z,47.58
2023-05-08T01:07:14.333Z,47.65
2023-05-08T01:12:47.674Z,47.63
2023-05-08T01:18:01.236Z,44.97
2023-05-08T01:23:40.552Z,45.80
2023-05-08T01:29:12.852Z,44.63
2023-05-08T01:34:25.295Z,44.08
2023-05-08T01:39:32.977Z,44.22
2023-05-08T01:44:43.729Z,44.85
2023-05-08T01:49:49.345Z,41.80
2023-05-08T01:54:59.629Z,44.35
2023-05-08T02:00:03.839Z,44.25
2023-05-08T02:05:12.864Z,44.00
2023-05-08T02:10:16.485Z,42.30
2023-05-08T02:15:20.135Z,43.78
2023-05-08T02:20:23.247Z,43.88
2023-05-08T02:25:25.783Z,42.20
2023-05-08T02:30:28.681Z,43.45
2023-05-08T02:35:31.540Z,43.70
2023-05-08T02:40:34.144Z,43.15
2023-05-08T02:45:45.814Z,44.17
2023-05-08T02:51:06.731Z,43.28
2023-05-08T02:56:12.201Z,41.15
2023-05-08T03:02:01.388Z,43.08
2023-05-08T03:07:04.711Z,40.60
2023-05-08T03:12:11.200Z,40.28
2023-05-08T03:17:19.551Z,41.60
2023-05-08T03:22:22.727Z,42.60
2023-05-08T03:27:26.340Z,41.88
2023-05-08T03:32:30.122Z,42.53
2023-05-08T03:37:32.076Z,44.28
2023-05-08T03:42:35.869Z,46.20
2023-05-08T03:47:38.698Z,44.35
2023-05-08T03:52:40.930Z,44.03
2023-05-08T03:58:15.157Z,47.25
2023-05-08T04:08:44.851Z,45.30
2023-05-08T04:13:53.090Z,47.08
2023-05-08T04:19:01.225Z,47.85
2023-05-08T04:24:07.401Z,49.25
2023-05-08T04:29:09.694Z,46.50
2023-05-08T04:34:12.680Z,46.95
2023-05-08T04:39:14.819Z,47.63
2023-05-08T04:44:17.645Z,47.53
2023-05-08T04:49:19.826Z,48.13
2023-05-08T04:54:24.817Z,46.50
2023-05-08T04:59:26.798Z,47.47
2023-05-08T05:04:29.103Z,46.78
2023-05-08T05:09:34.940Z,46.22
2023-05-08T05:14:36.711Z,47.97
2023-05-08T05:19:38.947Z,45.70
2023-05-08T05:24:41.585Z,47.85
2023-05-08T05:29:43.446Z,46.78
2023-05-08T05:34:45.396Z,47.45
2023-05-08T05:39:47.103Z,49.45
2023-05-08T05:44:49.043Z,50.40
2023-05-08T05:49:53.586Z,50.08
2023-05-08T05:54:58.056Z,61.90
2023-05-08T06:00:00.149Z,58.53
2023-05-08T06:05:02.486Z,58.45
2023-05-08T06:10:05.023Z,56.47
2023-05-08T06:15:08.001Z,53.58
2023-05-08T06:20:10.234Z,45.50
2023-05-08T06:25:12.128Z,44.15
2023-05-08T06:30:14.101Z,40.00
2023-05-08T06:35:19.635Z,40.45
2023-05-08T06:40:22.214Z,40.50
2023-05-08T06:45:25.987Z,42.33
2023-05-08T06:50:27.784Z,40.80
2023-05-08T06:55:29.445Z,42.58
2023-05-08T07:00:31.234Z,42.80
2023-05-08T07:05:32.975Z,43.70
2023-05-08T07:10:34.792Z,41.10
2023-05-08T07:15:36.405Z,44.28
2023-05-08T07:20:38.216Z,44.67
2023-05-08T07:25:39.935Z,43.05
2023-05-08T07:30:41.643Z,44.13
2023-05-08T07:35:43.501Z,43.40
2023-05-08T07:40:45.957Z,42.00
2023-05-08T07:45:47.747Z,41.75
2023-05-08T07:50:51.464Z,41.05
2023-05-08T07:55:53.628Z,40.65
2023-05-08T08:00:55.813Z,39.30
2023-05-08T08:05:57.652Z,40.45
2023-05-08T08:11:00.464Z,37.35
2023-05-08T08:16:04.296Z,38.20
2023-05-08T08:21:07.532Z,36.80
2023-05-08T08:26:09.313Z,31.35
2023-05-08T08:31:11.110Z,32.92
2023-05-08T08:36:13.863Z,32.42
2023-05-08T08:41:15.633Z,32.60
2023-05-08T08:46:23.909Z,34.40
2023-05-08T08:51:32.819Z,34.50
2023-05-08T08:56:36.527Z,36.63
2023-05-08T09:01:40.838Z,36.50
2023-05-08T09:06:42.530Z,34.58
2023-05-08T09:11:46.583Z,35.00
2023-05-08T09:16:48.356Z,33.40
2023-05-08T09:21:53.639Z,28.65
2023-05-08T09:26:55.966Z,27.73
2023-05-08T09:31:57.560Z,24.20
2023-05-08T09:37:05.318Z,24.27
2023-05-08T09:42:08.400Z,25.70
2023-05-08T09:47:12.309Z,21.42
2023-05-08T09:52:16.135Z,17.67
2023-05-08T09:57:17.905Z,20.25
2023-05-08T10:02:21.315Z,20.10
2023-05-08T10:07:34.810Z,20.17
2023-05-08T10:12:38.002Z,18.65
2023-05-08T10:17:54.753Z,20.48
2023-05-08T10:22:58.022Z,20.52
2023-05-08T10:28:11.474Z,19.92
2023-05-08T10:33:16.183Z,20.60
2023-05-08T10:38:19.241Z,20.45
2023-05-08T10:43:21.404Z,21.85
2023-05-08T10:48:44.980Z,22.80
2023-05-08T10:53:53.917Z,17.65
2023-05-08T10:58:57.643Z,16.47
2023-05-08T11:03:59.614Z,16.60
2023-05-08T11:09:01.550Z,17.73
2023-05-08T11:14:12.494Z,18.85
2023-05-08T11:19:23.169Z,18.98
2023-05-08T11:24:35.804Z,20.55
2023-05-08T11:29:38.567Z,21.70
2023-05-08T11:34:43.481Z,22.92
2023-05-08T11:39:45.734Z,21.95
2023-05-08T11:44:50.499Z,22.67
2023-05-08T11:49:55.446Z,22.05
2023-05-08T11:54:57.220Z,20.50
2023-05-08T12:00:09.880Z,20.58
2023-05-08T12:05:12.303Z,20.98
2023-05-08T12:10:16.114Z,19.83
2023-05-08T12:15:20.884Z,20.60
2023-05-08T12:20:22.760Z,18.25
2023-05-08T12:25:25.807Z,18.95
2023-05-08T12:30:27.996Z,20.00
2023-05-08T12:35:30.613Z,20.52
2023-05-08T12:40:42.783Z,20.38
2023-05-08T12:45:44.702Z,23.38
2023-05-08T12:50:46.777Z,23.35
2023-05-08T12:55:57.098Z,21.40
2023-05-08T13:01:13.212Z,21.40
2023-05-08T13:06:22.605Z,24.30
2023-05-08T13:11:35.325Z,20.42
2023-05-08T13:16:47.793Z,20.77
2023-05-08T13:21:49.861Z,21.80
2023-05-08T13:26:52.924Z,21.88
2023-05-08T13:31:55.645Z,22.52
2023-05-08T13:36:57.746Z,22.63
2023-05-08T13:41:59.385Z,25.08
2023-05-08T13:47:01.178Z,24.63
2023-05-08T13:52:02.904Z,29.67
2023-05-08T13:57:04.644Z,29.52
2023-05-08T14:02:06.831Z,32.28
2023-05-08T14:07:08.591Z,29.40
2023-05-08T14:12:10.410Z,27.80
2023-05-08T14:17:12.299Z,26.27
2023-05-08T14:22:14.331Z,26.55
2023-05-08T14:27:17.442Z,24.40
2023-05-08T14:32:19.108Z,22.83
2023-05-08T14:37:23.044Z,21.15
2023-05-08T14:42:24.924Z,22.75
2023-05-08T14:47:27.110Z,23.10
2023-05-08T14:52:28.924Z,25.23
2023-05-08T14:57:30.582Z,22.85
2023-05-08T15:02:32.662Z,23.15
2023-05-08T15:07:34.652Z,21.42
2023-05-08T15:12:37.193Z,21.92
2023-05-08T15:17:41.553Z,22.67
2023-05-08T15:22:43.557Z,22.98
2023-05-08T15:27:54.897Z,19.67
2023-05-08T15:32:56.547Z,15.55
2023-05-08T15:37:59.496Z,13.88
2023-05-08T15:43:01.307Z,15.45
2023-05-08T15:48:03.029Z,15.32
2023-05-08T15:53:05.786Z,13.90
2023-05-08T15:58:07.449Z,15.90
2023-05-08T16:03:09.322Z,17.65
2023-05-08T16:08:12.774Z,17.48
2023-05-08T16:13:15.180Z,18.50
2023-05-08T16:18:16.913Z,17.42
2023-05-08T16:23:18.691Z,17.77
2023-05-08T16:28:23.158Z,18.33
2023-05-08T16:33:24.924Z,18.35
2023-05-08T16:38:26.784Z,18.17
2023-05-08T16:43:31.764Z,18.65
2023-05-08T16:48:34.021Z,18.88
2023-05-08T16:53:35.697Z,19.05
2023-05-08T16:58:37.475Z,17.88
2023-05-08T17:03:39.220Z,19.27
2023-05-08T17:08:41.076Z,18.55
2023-05-08T17:13:43.280Z,18.58
2023-05-08T17:18:45.069Z,18.92
2023-05-08T17:23:46.737Z,16.85
2023-05-08T17:28:49.568Z,17.35
2023-05-08T17:33:51.230Z,20.33
2023-05-08T17:38:52.884Z,18.75
2023-05-08T17:43:55.084Z,18.15
2023-05-08T17:48:56.792Z,16.05
2023-05-08T17:53:58.462Z,11.02
2023-05-08T17:59:00.262Z,10.15
2023-05-08T18:04:02.160Z,9.07
2023-05-08T18:09:04.096Z,9.98
2023-05-08T18:14:05.918Z,10.38
2023-05-08T18:19:07.687Z,10.60
2023-05-08T18:24:09.338Z,9.75
2023-05-08T18:29:14.095Z,10.73
2023-05-08T18:34:15.802Z,7.32
2023-05-08T18:39:17.570Z,7.18
2023-05-08T18:44:19.265Z,5.72
2023-05-08T18:49:22.444Z,5.00
2023-05-08T18:54:26.918Z,3.72
2023-05-08T18:59:29.068Z,3.60
2023-05-08T19:04:30.843Z,2.88
2023-05-08T19:09:34.011Z,3.42
2023-05-08T19:14:36.449Z,4.20
2023-05-08T19:19:38.229Z,4.15
2023-05-08T19:24:40.382Z,4.15
2023-05-08T19:29:42.476Z,4.72
2023-05-08T19:34:44.237Z,4.55
2023-05-08T19:39:46.120Z,5.22
2023-05-08T19:44:48.519Z,4.55
2023-05-08T19:49:51.250Z,4.97
2023-05-08T19:54:52.911Z,4.65
2023-05-08T19:59:54.538Z,4.07
2023-05-08T20:10:01.419Z,3.05
2023-05-08T20:15:03.453Z,2.97
2023-05-08T20:20:05.908Z,3.10
2023-05-08T20:25:08.253Z,2.40
2023-05-08T20:30:10.621Z,3.58
2023-05-08T20:35:14.032Z,3.45
2023-05-08T20:40:16.068Z,3.08
2023-05-08T20:45:18.203Z,3.13
2023-05-08T20:50:22.755Z,3.00
2023-05-08T20:55:24.704Z,3.10
2023-05-08T21:00:26.489Z,3.22
2023-05-08T21:05:28.437Z,3.20
2023-05-08T21:10:31.790Z,2.95
2023-05-08T21:15:37.289Z,3.47
2023-05-08T21:20:39.138Z,3.17
2023-05-08T21:25:40.762Z,3.22
2023-05-08T21:30:45.970Z,3.63
2023-05-08T21:35:48.454Z,3.70
2023-05-08T21:40:50.412Z,4.72
2023-05-08T21:45:52.911Z,4.13
2023-05-08T21:50:54.779Z,4.47
2023-05-08T21:55:56.571Z,4.45
2023-05-08T22:00:58.807Z,3.80
2023-05-08T22:06:00.862Z,4.78
2023-05-08T22:11:02.570Z,5.45
2023-05-08T22:16:04.706Z,8.93
2023-05-08T22:21:06.503Z,3.55
2023-05-08T22:26:08.137Z,4.63
2023-05-08T22:31:09.826Z,4.93
2023-05-08T22:36:11.609Z,5.53
2023-05-08T22:41:13.365Z,6.07
2023-05-08T22:46:15.270Z,7.38
2023-05-08T22:51:17.283Z,7.82
2023-05-08T22:56:24.624Z,8.13
2023-05-08T23:01:26.460Z,9.27
2023-05-08T23:06:28.194Z,9.63
2023-05-08T23:11:29.945Z,10.98
2023-05-08T23:16:32.064Z,11.80
2023-05-08T23:21:35.461Z,12.77
2023-05-08T23:26:37.027Z,12.68
2023-05-08T23:31:38.815Z,13.65
2023-05-08T23:36:40.515Z,14.32
2023-05-08T23:41:42.343Z,14.57
2023-05-08T23:46:43.970Z,15.25
2023-05-08T23:51:45.711Z,18.10
2023-05-08T23:56:47.719Z,24.33
